BOE787X WIII-WAAA
Flight info
| Callsign | BOE787X |
|---|---|
| Flight time | 1h 48m |
| Altitude | 39000 |
| Route | CA T5 BIMAK |
| Aircraft | B78X/H-SDE1E2E3FGHIJ2J3J4J5M1RWXY/LB1D1 |
Departure
| Time | 2026-04-26 11:19 |
|---|---|
| Airport | Soekarno-Hatta International Airport (WIII) |
Arrival
| Time | 2026-04-26 13:07 |
|---|---|
| Airport | Sultan Hasanuddin International Airport (WAAA) |
| Time | Latitude | Longitude | Altitude | Speed | Heading |
|---|---|---|---|---|---|
| 2026-04-26 11:01 | -6.11530 | 106.66457 | 42 ft | 0 kts | 339° |
| 2026-04-26 11:06 | -6.11535 | 106.66459 | 42 ft | 3 kts | 339° |
| 2026-04-26 11:06 | -6.11560 | 106.66468 | 39 ft | 5 kts | 339° |
| 2026-04-26 11:07 | -6.11584 | 106.66478 | 42 ft | 4 kts | 339° |
| 2026-04-26 11:07 | -6.11603 | 106.66486 | 41 ft | 5 kts | 308° |
| 2026-04-26 11:07 | -6.11613 | 106.66503 | 39 ft | 5 kts | 270° |
| 2026-04-26 11:07 | -6.11610 | 106.66529 | 42 ft | 5 kts | 253° |
| 2026-04-26 11:08 | -6.11606 | 106.66542 | 41 ft | 4 kts | 250° |
| 2026-04-26 11:12 | -6.11609 | 106.66535 | 16 ft | 2 kts | 250° |
| 2026-04-26 11:12 | -6.11616 | 106.66516 | 16 ft | 4 kts | 249° |
| 2026-04-26 11:12 | -6.11631 | 106.66473 | 44 ft | 11 kts | 254° |
| 2026-04-26 11:12 | -6.11604 | 106.66384 | 44 ft | 17 kts | 316° |
| 2026-04-26 11:13 | -6.11486 | 106.66343 | 44 ft | 21 kts | 340° |
| 2026-04-26 11:13 | -6.11357 | 106.66272 | 44 ft | 15 kts | 300° |
| 2026-04-26 11:13 | -6.11375 | 106.66172 | 44 ft | 18 kts | 248° |
| 2026-04-26 11:13 | -6.11431 | 106.66031 | 44 ft | 24 kts | 249° |
| 2026-04-26 11:14 | -6.11492 | 106.65872 | 43 ft | 24 kts | 248° |
| 2026-04-26 11:14 | -6.11555 | 106.65715 | 43 ft | 24 kts | 248° |
| 2026-04-26 11:14 | -6.11617 | 106.65561 | 43 ft | 24 kts | 248° |
| 2026-04-26 11:14 | -6.11658 | 106.65459 | 44 ft | 24 kts | 248° |
| 2026-04-26 11:15 | -6.11738 | 106.65257 | 44 ft | 23 kts | 248° |
| 2026-04-26 11:15 | -6.11797 | 106.65110 | 44 ft | 23 kts | 248° |
| 2026-04-26 11:15 | -6.11856 | 106.64961 | 44 ft | 23 kts | 247° |
| 2026-04-26 11:15 | -6.11896 | 106.64865 | 44 ft | 23 kts | 248° |
| 2026-04-26 11:16 | -6.11973 | 106.64669 | 44 ft | 22 kts | 248° |
| 2026-04-26 11:16 | -6.12012 | 106.64573 | 44 ft | 22 kts | 248° |
| 2026-04-26 11:16 | -6.12070 | 106.64427 | 44 ft | 22 kts | 248° |
| 2026-04-26 11:16 | -6.12127 | 106.64284 | 44 ft | 22 kts | 248° |
| 2026-04-26 11:17 | -6.12184 | 106.64141 | 44 ft | 22 kts | 248° |
| 2026-04-26 11:17 | -6.12245 | 106.63987 | 45 ft | 14 kts | 252° |
| 2026-04-26 11:17 | -6.12243 | 106.63922 | 43 ft | 13 kts | 288° |
| 2026-04-26 11:17 | -6.12176 | 106.63884 | 45 ft | 11 kts | 4° |
| 2026-04-26 11:18 | -6.12105 | 106.63908 | 44 ft | 11 kts | 28° |
| 2026-04-26 11:18 | -6.12056 | 106.63972 | 44 ft | 12 kts | 68° |
| 2026-04-26 11:18 | -6.12047 | 106.63995 | 44 ft | 0 kts | 69° |
| 2026-04-26 11:18 | -6.12029 | 106.64044 | 42 ft | 25 kts | 68° |
| 2026-04-26 11:19 | -6.11855 | 106.64467 | 42 ft | 107 kts | 68° |
| 2026-04-26 11:19 | -6.11479 | 106.65406 | 92 ft | 177 kts | 65° |
| 2026-04-26 11:19 | -6.11000 | 106.66670 | 672 ft | 208 kts | 66° |
| 2026-04-26 11:19 | -6.10416 | 106.67865 | 2431 ft | 174 kts | 53° |
| 2026-04-26 11:20 | -6.09531 | 106.68791 | 3216 ft | 195 kts | 46° |
| 2026-04-26 11:20 | -6.08559 | 106.69795 | 3921 ft | 212 kts | 47° |
| 2026-04-26 11:20 | -6.07478 | 106.70942 | 4632 ft | 235 kts | 47° |
| 2026-04-26 11:20 | -6.06253 | 106.72251 | 4982 ft | 274 kts | 47° |
| 2026-04-26 11:21 | -6.04997 | 106.73585 | 6348 ft | 272 kts | 47° |
| 2026-04-26 11:21 | -6.03682 | 106.74981 | 7425 ft | 277 kts | 47° |
| 2026-04-26 11:21 | -6.02383 | 106.76428 | 8577 ft | 281 kts | 57° |
| 2026-04-26 11:21 | -6.01822 | 106.78287 | 9714 ft | 285 kts | 92° |
| 2026-04-26 11:22 | -6.02195 | 106.80267 | 10607 ft | 298 kts | 110° |
| 2026-04-26 11:22 | -6.03035 | 106.82241 | 11256 ft | 318 kts | 114° |
| 2026-04-26 11:22 | -6.03972 | 106.84341 | 11870 ft | 339 kts | 112° |
| 2026-04-26 11:22 | -6.04850 | 106.86613 | 12437 ft | 359 kts | 109° |
| 2026-04-26 11:23 | -6.05718 | 106.88996 | 13320 ft | 367 kts | 110° |
| 2026-04-26 11:23 | -6.06643 | 106.91412 | 14217 ft | 373 kts | 111° |
| 2026-04-26 11:23 | -6.07605 | 106.93853 | 15135 ft | 378 kts | 111° |
| 2026-04-26 11:23 | -6.08568 | 106.96334 | 16041 ft | 383 kts | 110° |
| 2026-04-26 11:24 | -6.09529 | 106.98847 | 16930 ft | 388 kts | 110° |
| 2026-04-26 11:24 | -6.10504 | 107.01387 | 17790 ft | 393 kts | 111° |
| 2026-04-26 11:24 | -6.11501 | 107.03966 | 18540 ft | 398 kts | 111° |
| 2026-04-26 11:24 | -6.12507 | 107.06572 | 19249 ft | 403 kts | 111° |
| 2026-04-26 11:25 | -6.13523 | 107.09210 | 19943 ft | 408 kts | 111° |
| 2026-04-26 11:25 | -6.14552 | 107.11885 | 20624 ft | 413 kts | 111° |
| 2026-04-26 11:25 | -6.15594 | 107.14590 | 21298 ft | 418 kts | 111° |
| 2026-04-26 11:25 | -6.16650 | 107.17329 | 21962 ft | 423 kts | 111° |
| 2026-04-26 11:26 | -6.17718 | 107.20102 | 22608 ft | 428 kts | 111° |
| 2026-04-26 11:26 | -6.18799 | 107.22911 | 23245 ft | 433 kts | 111° |
| 2026-04-26 11:26 | -6.19887 | 107.25739 | 23801 ft | 437 kts | 111° |
| 2026-04-26 11:26 | -6.20989 | 107.28602 | 24327 ft | 441 kts | 110° |
| 2026-04-26 11:27 | -6.22097 | 107.31481 | 24855 ft | 444 kts | 110° |
| 2026-04-26 11:27 | -6.23217 | 107.34392 | 25384 ft | 448 kts | 110° |
| 2026-04-26 11:27 | -6.24344 | 107.37323 | 25904 ft | 451 kts | 110° |
| 2026-04-26 11:27 | -6.25479 | 107.40276 | 26426 ft | 455 kts | 110° |
| 2026-04-26 11:28 | -6.26621 | 107.43244 | 26946 ft | 458 kts | 110° |
| 2026-04-26 11:28 | -6.27771 | 107.46238 | 27447 ft | 461 kts | 110° |
| 2026-04-26 11:28 | -6.28931 | 107.49256 | 27954 ft | 464 kts | 110° |
| 2026-04-26 11:28 | -6.30100 | 107.52297 | 28445 ft | 467 kts | 110° |
| 2026-04-26 11:29 | -6.31274 | 107.55354 | 28942 ft | 471 kts | 110° |
| 2026-04-26 11:29 | -6.32456 | 107.58430 | 29408 ft | 474 kts | 110° |
| 2026-04-26 11:29 | -6.33647 | 107.61533 | 29869 ft | 477 kts | 110° |
| 2026-04-26 11:29 | -6.34847 | 107.64659 | 30259 ft | 480 kts | 110° |
| 2026-04-26 11:30 | -6.36052 | 107.67797 | 30634 ft | 483 kts | 110° |
| 2026-04-26 11:30 | -6.36855 | 107.69890 | 30867 ft | 485 kts | 110° |
| 2026-04-26 11:30 | -6.38487 | 107.74142 | 31368 ft | 489 kts | 110° |
| 2026-04-26 11:30 | -6.39710 | 107.77331 | 31705 ft | 492 kts | 110° |
| 2026-04-26 11:31 | -6.40946 | 107.80552 | 32042 ft | 494 kts | 110° |
| 2026-04-26 11:31 | -6.42188 | 107.83793 | 32372 ft | 497 kts | 110° |
| 2026-04-26 11:31 | -6.43433 | 107.87040 | 32692 ft | 500 kts | 110° |
| 2026-04-26 11:31 | -6.44686 | 107.90308 | 33024 ft | 502 kts | 110° |
| 2026-04-26 11:32 | -6.45939 | 107.93578 | 33489 ft | 501 kts | 110° |
| 2026-04-26 11:32 | -6.47193 | 107.96849 | 33973 ft | 499 kts | 110° |
| 2026-04-26 11:32 | -6.48438 | 108.00101 | 34405 ft | 498 kts | 110° |
| 2026-04-26 11:32 | -6.49678 | 108.03339 | 34816 ft | 497 kts | 110° |
| 2026-04-26 11:33 | -6.50919 | 108.06580 | 35222 ft | 496 kts | 110° |
| 2026-04-26 11:33 | -6.52158 | 108.09817 | 35616 ft | 496 kts | 110° |
| 2026-04-26 11:33 | -6.53397 | 108.13054 | 36021 ft | 495 kts | 110° |
| 2026-04-26 11:33 | -6.54631 | 108.16279 | 36403 ft | 494 kts | 110° |
| 2026-04-26 11:34 | -6.55866 | 108.19506 | 36806 ft | 493 kts | 110° |
| 2026-04-26 11:34 | -6.57093 | 108.22715 | 37216 ft | 492 kts | 110° |
| 2026-04-26 11:34 | -6.58320 | 108.25922 | 37617 ft | 490 kts | 110° |
| 2026-04-26 11:34 | -6.59544 | 108.29125 | 38032 ft | 489 kts | 110° |
| 2026-04-26 11:35 | -6.60762 | 108.32310 | 38435 ft | 488 kts | 110° |
| 2026-04-26 11:35 | -6.61976 | 108.35487 | 38773 ft | 487 kts | 110° |
| 2026-04-26 11:35 | -6.63995 | 108.40773 | 38885 ft | 483 kts | 110° |
| 2026-04-26 11:36 | -6.66809 | 108.48144 | 38878 ft | 485 kts | 110° |
| 2026-04-26 11:36 | -6.68984 | 108.54517 | 38911 ft | 481 kts | 100° |
| 2026-04-26 11:37 | -6.69346 | 108.57868 | 38910 ft | 483 kts | 89° |
| 2026-04-26 11:37 | -6.69104 | 108.61236 | 38890 ft | 483 kts | 83° |
| 2026-04-26 11:37 | -6.68239 | 108.67938 | 38882 ft | 483 kts | 82° |
| 2026-04-26 11:38 | -6.67348 | 108.74645 | 38881 ft | 484 kts | 83° |
| 2026-04-26 11:38 | -6.66476 | 108.81358 | 38880 ft | 485 kts | 83° |
| 2026-04-26 11:39 | -6.65587 | 108.88081 | 38875 ft | 485 kts | 83° |
| 2026-04-26 11:39 | -6.64706 | 108.94807 | 38877 ft | 484 kts | 83° |
| 2026-04-26 11:40 | -6.63821 | 109.01519 | 38866 ft | 484 kts | 83° |
| 2026-04-26 11:40 | -6.62940 | 109.08213 | 38864 ft | 483 kts | 83° |
| 2026-04-26 11:42 | -6.59405 | 109.34966 | 38869 ft | 484 kts | 83° |
| 2026-04-26 11:43 | -6.58516 | 109.41676 | 38862 ft | 484 kts | 83° |
| 2026-04-26 11:43 | -6.57626 | 109.48388 | 38860 ft | 485 kts | 82° |
| 2026-04-26 11:44 | -6.56733 | 109.55119 | 38855 ft | 486 kts | 82° |
| 2026-04-26 11:44 | -6.55832 | 109.61902 | 38856 ft | 486 kts | 82° |
| 2026-04-26 11:45 | -6.54943 | 109.68586 | 38856 ft | 486 kts | 82° |
| 2026-04-26 11:45 | -6.54046 | 109.75316 | 38857 ft | 485 kts | 82° |
| 2026-04-26 11:46 | -6.53150 | 109.82044 | 38846 ft | 485 kts | 82° |
| 2026-04-26 11:46 | -6.52251 | 109.88777 | 38849 ft | 486 kts | 82° |
| 2026-04-26 11:47 | -6.51352 | 109.95507 | 38848 ft | 486 kts | 82° |
| 2026-04-26 11:47 | -6.50453 | 110.02235 | 38845 ft | 485 kts | 82° |
| 2026-04-26 11:48 | -6.49554 | 110.08951 | 38850 ft | 485 kts | 82° |
| 2026-04-26 11:48 | -6.48652 | 110.15682 | 38847 ft | 485 kts | 82° |
| 2026-04-26 11:49 | -6.47751 | 110.22405 | 38846 ft | 485 kts | 82° |
| 2026-04-26 11:49 | -6.46848 | 110.29128 | 38846 ft | 485 kts | 82° |
| 2026-04-26 11:50 | -6.45945 | 110.35846 | 38852 ft | 485 kts | 82° |
| 2026-04-26 11:50 | -6.45046 | 110.42580 | 38850 ft | 485 kts | 82° |
| 2026-04-26 11:51 | -6.44165 | 110.49296 | 38847 ft | 486 kts | 82° |
| 2026-04-26 11:51 | -6.43266 | 110.56065 | 38849 ft | 487 kts | 82° |
| 2026-04-26 11:52 | -6.42525 | 110.61674 | 38853 ft | 487 kts | 82° |
| 2026-04-26 11:52 | -6.41479 | 110.69562 | 38854 ft | 487 kts | 82° |
| 2026-04-26 11:53 | -6.40583 | 110.76315 | 38852 ft | 487 kts | 82° |
| 2026-04-26 11:54 | -6.39238 | 110.86442 | 38852 ft | 488 kts | 83° |
| 2026-04-26 11:54 | -6.38338 | 110.93205 | 38851 ft | 489 kts | 83° |
| 2026-04-26 11:55 | -6.37435 | 110.99984 | 38850 ft | 488 kts | 83° |
| 2026-04-26 11:55 | -6.36542 | 111.06691 | 38848 ft | 487 kts | 83° |
| 2026-04-26 11:56 | -6.35642 | 111.13436 | 38845 ft | 487 kts | 83° |
| 2026-04-26 11:56 | -6.34756 | 111.20174 | 38851 ft | 485 kts | 83° |
| 2026-04-26 11:57 | -6.33866 | 111.26895 | 38849 ft | 485 kts | 83° |
| 2026-04-26 11:57 | -6.32977 | 111.33625 | 38845 ft | 486 kts | 83° |
| 2026-04-26 11:58 | -6.32084 | 111.40364 | 38843 ft | 486 kts | 83° |
| 2026-04-26 11:58 | -6.31191 | 111.47107 | 38849 ft | 486 kts | 83° |
| 2026-04-26 11:59 | -6.30297 | 111.53846 | 38846 ft | 486 kts | 83° |
| 2026-04-26 11:59 | -6.29403 | 111.60577 | 38847 ft | 486 kts | 83° |
| 2026-04-26 12:00 | -6.28659 | 111.66174 | 38850 ft | 486 kts | 83° |
| 2026-04-26 12:00 | -6.27763 | 111.72906 | 38860 ft | 486 kts | 83° |
| 2026-04-26 12:01 | -6.26865 | 111.79649 | 38863 ft | 487 kts | 83° |
| 2026-04-26 12:01 | -6.25958 | 111.86390 | 38864 ft | 487 kts | 83° |
| 2026-04-26 12:02 | -6.25035 | 111.93125 | 38864 ft | 487 kts | 83° |
| 2026-04-26 12:02 | -6.24120 | 111.99872 | 38866 ft | 487 kts | 83° |
| 2026-04-26 12:03 | -6.23200 | 112.06606 | 38867 ft | 486 kts | 83° |
| 2026-04-26 12:03 | -6.22283 | 112.13336 | 38867 ft | 486 kts | 83° |
| 2026-04-26 12:04 | -6.21358 | 112.20106 | 38870 ft | 489 kts | 83° |
| 2026-04-26 12:04 | -6.20433 | 112.26866 | 38866 ft | 488 kts | 83° |
| 2026-04-26 12:05 | -6.19508 | 112.33624 | 38863 ft | 489 kts | 83° |
| 2026-04-26 12:05 | -6.18581 | 112.40397 | 38867 ft | 489 kts | 83° |
| 2026-04-26 12:06 | -6.17653 | 112.47168 | 38870 ft | 490 kts | 82° |
| 2026-04-26 12:06 | -6.16721 | 112.53952 | 38872 ft | 489 kts | 82° |
| 2026-04-26 12:07 | -6.15791 | 112.60726 | 38868 ft | 489 kts | 82° |
| 2026-04-26 12:07 | -6.14860 | 112.67492 | 38864 ft | 489 kts | 82° |
| 2026-04-26 12:08 | -6.13928 | 112.74266 | 38874 ft | 489 kts | 82° |
| 2026-04-26 12:08 | -6.12995 | 112.81038 | 38873 ft | 487 kts | 82° |
| 2026-04-26 12:09 | -6.12067 | 112.87767 | 38866 ft | 487 kts | 82° |
| 2026-04-26 12:09 | -6.11137 | 112.94503 | 38871 ft | 487 kts | 82° |
| 2026-04-26 12:10 | -6.10205 | 113.01251 | 38869 ft | 487 kts | 82° |
| 2026-04-26 12:10 | -6.09274 | 113.07987 | 38870 ft | 487 kts | 82° |
| 2026-04-26 12:11 | -6.08345 | 113.14700 | 38870 ft | 481 kts | 82° |
| 2026-04-26 12:11 | -6.07421 | 113.21371 | 38872 ft | 483 kts | 82° |
| 2026-04-26 12:12 | -6.06492 | 113.28068 | 38867 ft | 484 kts | 82° |
| 2026-04-26 12:12 | -6.05562 | 113.34764 | 38870 ft | 484 kts | 82° |
| 2026-04-26 12:13 | -6.04633 | 113.41453 | 38878 ft | 484 kts | 82° |
| 2026-04-26 12:13 | -6.03703 | 113.48141 | 38874 ft | 481 kts | 82° |
| 2026-04-26 12:14 | -6.02776 | 113.54801 | 38874 ft | 482 kts | 82° |
| 2026-04-26 12:14 | -6.01849 | 113.61460 | 38876 ft | 481 kts | 82° |
| 2026-04-26 12:15 | -6.00920 | 113.68122 | 38869 ft | 481 kts | 82° |
| 2026-04-26 12:15 | -5.99992 | 113.74773 | 38875 ft | 481 kts | 82° |
| 2026-04-26 12:16 | -5.99065 | 113.81410 | 38873 ft | 479 kts | 82° |
| 2026-04-26 12:16 | -5.98142 | 113.88008 | 38875 ft | 480 kts | 82° |
| 2026-04-26 12:17 | -5.97212 | 113.94654 | 38876 ft | 480 kts | 82° |
| 2026-04-26 12:17 | -5.96282 | 114.01294 | 38874 ft | 480 kts | 82° |
| 2026-04-26 12:18 | -5.95353 | 114.07923 | 38881 ft | 480 kts | 82° |
| 2026-04-26 12:18 | -5.94423 | 114.14550 | 38879 ft | 479 kts | 82° |
| 2026-04-26 12:19 | -5.93490 | 114.21190 | 38880 ft | 480 kts | 82° |
| 2026-04-26 12:19 | -5.92556 | 114.27835 | 38881 ft | 481 kts | 82° |
| 2026-04-26 12:20 | -5.91622 | 114.34473 | 38885 ft | 480 kts | 82° |
| 2026-04-26 12:20 | -5.90686 | 114.41118 | 38885 ft | 479 kts | 82° |
| 2026-04-26 12:21 | -5.89755 | 114.47728 | 38884 ft | 478 kts | 82° |
| 2026-04-26 12:21 | -5.88821 | 114.54341 | 38882 ft | 479 kts | 82° |
| 2026-04-26 12:22 | -5.87885 | 114.60964 | 38890 ft | 479 kts | 83° |
| 2026-04-26 12:22 | -5.86949 | 114.67596 | 38887 ft | 479 kts | 83° |
| 2026-04-26 12:23 | -5.86013 | 114.74211 | 38887 ft | 479 kts | 83° |
| 2026-04-26 12:23 | -5.85075 | 114.80839 | 38890 ft | 479 kts | 83° |
| 2026-04-26 12:24 | -5.84137 | 114.87455 | 38889 ft | 479 kts | 83° |
| 2026-04-26 12:24 | -5.83199 | 114.94074 | 38888 ft | 479 kts | 83° |
| 2026-04-26 12:25 | -5.81787 | 115.04012 | 38891 ft | 479 kts | 83° |
| 2026-04-26 12:25 | -5.80847 | 115.10630 | 38890 ft | 478 kts | 83° |
| 2026-04-26 12:26 | -5.79905 | 115.17253 | 38888 ft | 479 kts | 83° |
| 2026-04-26 12:26 | -5.78961 | 115.23880 | 38886 ft | 480 kts | 83° |
| 2026-04-26 12:27 | -5.78016 | 115.30514 | 38896 ft | 480 kts | 83° |
| 2026-04-26 12:27 | -5.77070 | 115.37148 | 38893 ft | 479 kts | 83° |
| 2026-04-26 12:28 | -5.76125 | 115.43768 | 38893 ft | 479 kts | 83° |
| 2026-04-26 12:28 | -5.75184 | 115.50356 | 38893 ft | 479 kts | 83° |
| 2026-04-26 12:29 | -5.74237 | 115.56984 | 38896 ft | 480 kts | 83° |
| 2026-04-26 12:30 | -5.72813 | 115.66932 | 38894 ft | 480 kts | 83° |
| 2026-04-26 12:30 | -5.71861 | 115.73574 | 38892 ft | 481 kts | 83° |
| 2026-04-26 12:31 | -5.70433 | 115.83531 | 38895 ft | 480 kts | 83° |
| 2026-04-26 12:31 | -5.69479 | 115.90174 | 38895 ft | 480 kts | 83° |
| 2026-04-26 12:32 | -5.68525 | 115.96815 | 38900 ft | 481 kts | 83° |
| 2026-04-26 12:33 | -5.67092 | 116.06783 | 38899 ft | 481 kts | 83° |
| 2026-04-26 12:33 | -5.66233 | 116.12743 | 38896 ft | 481 kts | 83° |
| 2026-04-26 12:34 | -5.65277 | 116.19382 | 38901 ft | 480 kts | 83° |
| 2026-04-26 12:34 | -5.64351 | 116.25805 | 38897 ft | 481 kts | 83° |
| 2026-04-26 12:35 | -5.63391 | 116.32455 | 38897 ft | 482 kts | 82° |
| 2026-04-26 12:35 | -5.62428 | 116.39117 | 38899 ft | 483 kts | 82° |
| 2026-04-26 12:36 | -5.61465 | 116.45784 | 38891 ft | 483 kts | 82° |
| 2026-04-26 12:36 | -5.60499 | 116.52457 | 38896 ft | 482 kts | 82° |
| 2026-04-26 12:37 | -5.59535 | 116.59116 | 38898 ft | 483 kts | 83° |
| 2026-04-26 12:37 | -5.58574 | 116.65749 | 38897 ft | 484 kts | 83° |
| 2026-04-26 12:38 | -5.57605 | 116.72430 | 38899 ft | 484 kts | 83° |
| 2026-04-26 12:38 | -5.56635 | 116.79110 | 38895 ft | 483 kts | 83° |
| 2026-04-26 12:39 | -5.55667 | 116.85775 | 38898 ft | 483 kts | 83° |
| 2026-04-26 12:39 | -5.54696 | 116.92453 | 38893 ft | 484 kts | 83° |
| 2026-04-26 12:40 | -5.53722 | 116.99146 | 38893 ft | 484 kts | 83° |
| 2026-04-26 12:40 | -5.52749 | 117.05832 | 38895 ft | 484 kts | 83° |
| 2026-04-26 12:41 | -5.51915 | 117.12539 | 38904 ft | 484 kts | 83° |
| 2026-04-26 12:41 | -5.51040 | 117.19239 | 38905 ft | 485 kts | 84° |
| 2026-04-26 12:42 | -5.50222 | 117.25981 | 38903 ft | 486 kts | 84° |
| 2026-04-26 12:42 | -5.49366 | 117.32706 | 38901 ft | 486 kts | 84° |
| 2026-04-26 12:43 | -5.48533 | 117.39426 | 38828 ft | 483 kts | 84° |
| 2026-04-26 12:43 | -5.48111 | 117.42772 | 38340 ft | 482 kts | 84° |
| 2026-04-26 12:43 | -5.47690 | 117.46114 | 37613 ft | 483 kts | 84° |
| 2026-04-26 12:43 | -5.47272 | 117.49453 | 36881 ft | 484 kts | 83° |
| 2026-04-26 12:44 | -5.46857 | 117.52775 | 36165 ft | 485 kts | 83° |
| 2026-04-26 12:44 | -5.46434 | 117.56141 | 35435 ft | 486 kts | 83° |
| 2026-04-26 12:44 | -5.46010 | 117.59503 | 34696 ft | 488 kts | 83° |
| 2026-04-26 12:44 | -5.45586 | 117.62885 | 33906 ft | 490 kts | 83° |
| 2026-04-26 12:45 | -5.45158 | 117.66285 | 32942 ft | 492 kts | 83° |
| 2026-04-26 12:45 | -5.44727 | 117.69710 | 32039 ft | 495 kts | 83° |
| 2026-04-26 12:45 | -5.44437 | 117.72018 | 31502 ft | 493 kts | 83° |
| 2026-04-26 12:45 | -5.43869 | 117.76531 | 30435 ft | 493 kts | 83° |
| 2026-04-26 12:46 | -5.43579 | 117.78835 | 29873 ft | 492 kts | 83° |
| 2026-04-26 12:46 | -5.43151 | 117.82234 | 29055 ft | 489 kts | 83° |
| 2026-04-26 12:46 | -5.42731 | 117.85565 | 28283 ft | 485 kts | 83° |
| 2026-04-26 12:46 | -5.42309 | 117.88910 | 27521 ft | 482 kts | 83° |
| 2026-04-26 12:47 | -5.41889 | 117.92238 | 26759 ft | 478 kts | 83° |
| 2026-04-26 12:47 | -5.41473 | 117.95534 | 26001 ft | 475 kts | 83° |
| 2026-04-26 12:47 | -5.41059 | 117.98813 | 25266 ft | 472 kts | 83° |
| 2026-04-26 12:47 | -5.40647 | 118.02075 | 24529 ft | 469 kts | 83° |
| 2026-04-26 12:48 | -5.40238 | 118.05313 | 23796 ft | 466 kts | 83° |
| 2026-04-26 12:48 | -5.39830 | 118.08530 | 23176 ft | 460 kts | 83° |
| 2026-04-26 12:48 | -5.39434 | 118.11674 | 22881 ft | 445 kts | 83° |
| 2026-04-26 12:48 | -5.39057 | 118.14705 | 22863 ft | 435 kts | 83° |
| 2026-04-26 12:49 | -5.38681 | 118.17743 | 22877 ft | 441 kts | 83° |
| 2026-04-26 12:49 | -5.38301 | 118.20786 | 22872 ft | 440 kts | 83° |
| 2026-04-26 12:49 | -5.37918 | 118.23834 | 22875 ft | 440 kts | 83° |
| 2026-04-26 12:49 | -5.37538 | 118.26877 | 22878 ft | 440 kts | 83° |
| 2026-04-26 12:50 | -5.37158 | 118.29923 | 22875 ft | 440 kts | 83° |
| 2026-04-26 12:50 | -5.36777 | 118.32975 | 22828 ft | 441 kts | 83° |
| 2026-04-26 12:50 | -5.36394 | 118.36027 | 22406 ft | 440 kts | 83° |
| 2026-04-26 12:50 | -5.36016 | 118.39047 | 21866 ft | 433 kts | 83° |
| 2026-04-26 12:51 | -5.35642 | 118.42033 | 21350 ft | 429 kts | 83° |
| 2026-04-26 12:51 | -5.35272 | 118.44989 | 20846 ft | 426 kts | 83° |
| 2026-04-26 12:51 | -5.34902 | 118.47939 | 20336 ft | 424 kts | 83° |
| 2026-04-26 12:51 | -5.34536 | 118.50856 | 19828 ft | 421 kts | 83° |
| 2026-04-26 12:52 | -5.34173 | 118.53754 | 19342 ft | 418 kts | 83° |
| 2026-04-26 12:52 | -5.33811 | 118.56640 | 18844 ft | 415 kts | 83° |
| 2026-04-26 12:52 | -5.33452 | 118.59501 | 18354 ft | 412 kts | 83° |
| 2026-04-26 12:52 | -5.33096 | 118.62335 | 17829 ft | 408 kts | 83° |
| 2026-04-26 12:53 | -5.32743 | 118.65144 | 17341 ft | 404 kts | 83° |
| 2026-04-26 12:53 | -5.32392 | 118.67938 | 16856 ft | 401 kts | 83° |
| 2026-04-26 12:53 | -5.32044 | 118.70705 | 16381 ft | 399 kts | 83° |
| 2026-04-26 12:53 | -5.31698 | 118.73455 | 15909 ft | 397 kts | 83° |
| 2026-04-26 12:54 | -5.31354 | 118.76193 | 15439 ft | 394 kts | 83° |
| 2026-04-26 12:54 | -5.31012 | 118.78912 | 14971 ft | 392 kts | 83° |
| 2026-04-26 12:54 | -5.30671 | 118.81621 | 14494 ft | 389 kts | 83° |
| 2026-04-26 12:54 | -5.30333 | 118.84304 | 14052 ft | 385 kts | 83° |
| 2026-04-26 12:55 | -5.30006 | 118.86900 | 13574 ft | 376 kts | 83° |
| 2026-04-26 12:55 | -5.29682 | 118.89471 | 13123 ft | 367 kts | 83° |
| 2026-04-26 12:55 | -5.29499 | 118.91992 | 12692 ft | 357 kts | 91° |
| 2026-04-26 12:55 | -5.29516 | 118.94445 | 12270 ft | 348 kts | 89° |
| 2026-04-26 12:56 | -5.29479 | 118.96846 | 11925 ft | 338 kts | 89° |
| 2026-04-26 12:56 | -5.29460 | 118.99177 | 11548 ft | 331 kts | 90° |
| 2026-04-26 12:56 | -5.29460 | 119.01459 | 11163 ft | 324 kts | 90° |
| 2026-04-26 12:56 | -5.29457 | 119.03700 | 10785 ft | 318 kts | 90° |
| 2026-04-26 12:57 | -5.29446 | 119.05890 | 10426 ft | 311 kts | 90° |
| 2026-04-26 12:57 | -5.29436 | 119.08034 | 10055 ft | 303 kts | 90° |
| 2026-04-26 12:57 | -5.29428 | 119.10122 | 9692 ft | 295 kts | 90° |
| 2026-04-26 12:58 | -5.29414 | 119.14115 | 8997 ft | 278 kts | 90° |
| 2026-04-26 12:58 | -5.29406 | 119.16044 | 8677 ft | 275 kts | 90° |
| 2026-04-26 12:58 | -5.29398 | 119.17957 | 8352 ft | 274 kts | 90° |
| 2026-04-26 12:58 | -5.29391 | 119.19861 | 8033 ft | 272 kts | 89° |
| 2026-04-26 12:59 | -5.29383 | 119.21755 | 7721 ft | 271 kts | 89° |
| 2026-04-26 12:59 | -5.29376 | 119.23638 | 7400 ft | 270 kts | 89° |
| 2026-04-26 12:59 | -5.29367 | 119.25520 | 7085 ft | 268 kts | 90° |
| 2026-04-26 12:59 | -5.29360 | 119.27388 | 6767 ft | 267 kts | 90° |
| 2026-04-26 13:00 | -5.29353 | 119.29242 | 6459 ft | 266 kts | 90° |
| 2026-04-26 13:00 | -5.29345 | 119.31069 | 6150 ft | 265 kts | 90° |
| 2026-04-26 13:00 | -5.29337 | 119.32930 | 5824 ft | 263 kts | 90° |
| 2026-04-26 13:00 | -5.29329 | 119.34752 | 5540 ft | 256 kts | 90° |
| 2026-04-26 13:01 | -5.29322 | 119.36498 | 5247 ft | 245 kts | 90° |
| 2026-04-26 13:01 | -5.29315 | 119.38157 | 4964 ft | 237 kts | 90° |
| 2026-04-26 13:01 | -5.29308 | 119.39801 | 4688 ft | 228 kts | 90° |
| 2026-04-26 13:01 | -5.29293 | 119.41361 | 4416 ft | 219 kts | 87° |
| 2026-04-26 13:02 | -5.28820 | 119.42741 | 4209 ft | 214 kts | 52° |
| 2026-04-26 13:02 | -5.27700 | 119.43668 | 4014 ft | 203 kts | 34° |
| 2026-04-26 13:02 | -5.26528 | 119.44372 | 3770 ft | 196 kts | 31° |
| 2026-04-26 13:02 | -5.25363 | 119.45049 | 3527 ft | 193 kts | 31° |
| 2026-04-26 13:03 | -5.24203 | 119.45721 | 3285 ft | 192 kts | 31° |
| 2026-04-26 13:03 | -5.23045 | 119.46393 | 3040 ft | 192 kts | 31° |
| 2026-04-26 13:03 | -5.21889 | 119.47062 | 2793 ft | 192 kts | 31° |
| 2026-04-26 13:03 | -5.20734 | 119.47732 | 2547 ft | 192 kts | 31° |
| 2026-04-26 13:04 | -5.19597 | 119.48391 | 2311 ft | 181 kts | 30° |
| 2026-04-26 13:04 | -5.18573 | 119.48983 | 2077 ft | 166 kts | 31° |
| 2026-04-26 13:04 | -5.17588 | 119.49554 | 1874 ft | 162 kts | 31° |
| 2026-04-26 13:04 | -5.16612 | 119.50120 | 1667 ft | 161 kts | 31° |
| 2026-04-26 13:05 | -5.15647 | 119.50680 | 1460 ft | 160 kts | 30° |
| 2026-04-26 13:05 | -5.14688 | 119.51239 | 1255 ft | 160 kts | 31° |
| 2026-04-26 13:05 | -5.13727 | 119.51801 | 1050 ft | 159 kts | 31° |
| 2026-04-26 13:05 | -5.12770 | 119.52355 | 855 ft | 158 kts | 31° |
| 2026-04-26 13:06 | -5.11823 | 119.52903 | 657 ft | 157 kts | 31° |
| 2026-04-26 13:06 | -5.10882 | 119.53454 | 445 ft | 155 kts | 31° |
| 2026-04-26 13:06 | -5.09942 | 119.53994 | 237 ft | 155 kts | 30° |
| 2026-04-26 13:06 | -5.09027 | 119.54526 | 49 ft | 151 kts | 32° |
| 2026-04-26 13:07 | -5.08253 | 119.54967 | 45 ft | 99 kts | 31° |
| 2026-04-26 13:07 | -5.07810 | 119.55227 | 48 ft | 50 kts | 31° |
| 2026-04-26 13:07 | -5.07582 | 119.55357 | 46 ft | 30 kts | 30° |
| 2026-04-26 13:07 | -5.07421 | 119.55421 | 46 ft | 24 kts | 14° |
| 2026-04-26 13:08 | -5.07304 | 119.55430 | 44 ft | 11 kts | 359° |
| 2026-04-26 13:08 | -5.07294 | 119.55430 | 46 ft | 1 kts | 359° |
| 2026-04-26 13:08 | -5.07281 | 119.55430 | 46 ft | 3 kts | 360° |
| 2026-04-26 13:08 | -5.07260 | 119.55429 | 46 ft | 4 kts | 358° |
| 2026-04-26 13:09 | -5.07236 | 119.55423 | 46 ft | 4 kts | 338° |
| 2026-04-26 13:09 | -5.07217 | 119.55403 | 46 ft | 4 kts | 301° |
| 2026-04-26 13:09 | -5.07214 | 119.55377 | 47 ft | 4 kts | 263° |
| 2026-04-26 13:09 | -5.07226 | 119.55360 | 47 ft | 3 kts | 226° |
| 2026-04-26 13:10 | -5.07246 | 119.55346 | 47 ft | 4 kts | 215° |
| 2026-04-26 13:10 | -5.07274 | 119.55328 | 47 ft | 5 kts | 212° |
| 2026-04-26 13:10 | -5.07311 | 119.55306 | 47 ft | 7 kts | 211° |
| 2026-04-26 13:10 | -5.07356 | 119.55279 | 47 ft | 8 kts | 210° |
| 2026-04-26 13:11 | -5.07410 | 119.55249 | 47 ft | 10 kts | 209° |
| 2026-04-26 13:11 | -5.07472 | 119.55214 | 47 ft | 11 kts | 209° |
| 2026-04-26 13:11 | -5.07540 | 119.55175 | 47 ft | 12 kts | 210° |
| 2026-04-26 13:11 | -5.07617 | 119.55131 | 47 ft | 13 kts | 210° |
| 2026-04-26 13:12 | -5.07700 | 119.55083 | 47 ft | 14 kts | 210° |
| 2026-04-26 13:12 | -5.07789 | 119.55031 | 47 ft | 15 kts | 211° |
| 2026-04-26 13:12 | -5.07884 | 119.54975 | 46 ft | 16 kts | 210° |
| 2026-04-26 13:12 | -5.07985 | 119.54919 | 47 ft | 17 kts | 210° |
| 2026-04-26 13:13 | -5.08053 | 119.54843 | 47 ft | 12 kts | 265° |
| 2026-04-26 13:13 | -5.08027 | 119.54774 | 46 ft | 9 kts | 301° |
| 2026-04-26 13:13 | -5.07982 | 119.54737 | 47 ft | 8 kts | 342° |
| 2026-04-26 13:13 | -5.07938 | 119.54743 | 46 ft | 5 kts | 15° |
| 2026-04-26 13:14 | -5.07906 | 119.54736 | 47 ft | 4 kts | 329° |
| 2026-04-26 13:14 | -5.07888 | 119.54714 | 47 ft | 3 kts | 303° |
| 2026-04-26 13:14 | -5.07878 | 119.54698 | 47 ft | 1 kts | 302° |
| 2026-04-26 13:14 | -5.07874 | 119.54690 | 47 ft | 1 kts | 301° |
| 2026-04-26 13:15 | -5.07870 | 119.54684 | 47 ft | 1 kts | 301° |
| 2026-04-26 13:15 | -5.07868 | 119.54681 | 47 ft | 1 kts | 301° |
| 2026-04-26 13:15 | -5.07866 | 119.54678 | 47 ft | 0 kts | 300° |